Time;durP1;ratioP1;P1;durP2;ratioP2;P2;SDS_P1;SDS_P2;PMS_P1;PMS_P2;Temp;Humidity;BMP_temperature;BMP_pressure;BME280_temperature;BME280_humidity;BME280_pressure;Samples;Min_cycle;Max_cycle;Signal;HPM_P1;HPM_P2
2024/04/01 00:04:40;;;;;;;8.85;2.60;;;;;;;;;;10458884;28;20045;-54
2024/04/01 00:09:41;;;;;;;8.35;2.83;;;;;;;;;;10433403;28;20256;-53
2024/04/01 00:14:41;;;;;;;7.43;3.00;;;;;;;;;;10454350;28;20358;-52
2024/04/01 00:19:42;;;;;;;13.65;3.05;;;;;;;;;;10459515;28;20017;-49
2024/04/01 00:24:43;;;;;;;7.00;2.95;;;;;;;;;;10445199;28;20412;-49
2024/04/01 00:29:43;;;;;;;12.35;3.10;;;;;;;;;;10433067;28;20025;-50
2024/04/01 00:34:44;;;;;;;6.47;2.70;;;;;;;;;;10458522;28;20025;-49
2024/04/01 00:39:44;;;;;;;17.73;2.95;;;;;;;;;;10452500;28;20052;-48
2024/04/01 00:44:45;;;;;;;10.27;3.30;;;;;;;;;;10456047;28;20110;-51
2024/04/01 00:49:45;;;;;;;14.25;3.17;;;;;;;;;;10467376;28;20033;-48
2024/04/01 00:54:47;;;;;;;11.60;3.30;;;;;;;;;;10434195;28;20164;-52
2024/04/01 00:59:49;;;;;;;10.90;3.10;;;;;;;;;;10421500;28;20107;-51
2024/04/01 01:04:51;;;;;;;8.95;2.60;;;;;;;;;;10438682;28;20098;-50
2024/04/01 01:09:51;;;;;;;9.77;2.70;;;;;;;;;;10465145;28;20384;-54
2024/04/01 01:14:52;;;;;;;10.05;3.35;;;;;;;;;;10431453;28;20034;-51
2024/04/01 01:19:52;;;;;;;12.90;3.60;;;;;;;;;;10448011;28;20021;-53
2024/04/01 01:24:53;;;;;;;11.10;3.20;;;;;;;;;;10455852;28;20191;-58
2024/04/01 01:29:54;;;;;;;7.93;3.00;;;;;;;;;;10464983;28;20032;-58
2024/04/01 01:34:54;;;;;;;10.32;2.65;;;;;;;;;;10452076;28;20404;-57
2024/04/01 01:39:55;;;;;;;16.48;3.20;;;;;;;;;;10458852;28;20108;-58
2024/04/01 01:44:55;;;;;;;6.88;2.75;;;;;;;;;;10465387;28;20028;-58
2024/04/01 01:49:56;;;;;;;15.30;3.22;;;;;;;;;;10458504;28;20029;-55
2024/04/01 01:54:57;;;;;;;7.95;3.05;;;;;;;;;;10441209;28;20045;-51
2024/04/01 01:59:58;;;;;;;8.68;3.00;;;;;;;;;;10445340;28;20185;-53
2024/04/01 02:04:59;;;;;;;8.73;2.72;;;;;;;;;;10446084;28;20272;-55
2024/04/01 02:10:01;;;;;;;7.93;2.47;;;;;;;;;;10453925;28;20052;-55
2024/04/01 02:15:02;;;;;;;10.07;3.25;;;;;;;;;;10448725;28;20390;-55
2024/04/01 02:20:11;;;;;;;9.98;3.40;;;;;;;;;;10457217;28;20025;-56
2024/04/01 02:25:17;;;;;;;9.93;3.33;;;;;;;;;;10423941;28;20105;-55
2024/04/01 02:30:19;;;;;;;9.10;3.03;;;;;;;;;;10423251;28;20302;-56
2024/04/01 02:35:20;;;;;;;14.75;3.60;;;;;;;;;;10425579;28;20025;-56
2024/04/01 02:40:20;;;;;;;12.25;3.42;;;;;;;;;;10442598;28;20472;-57
2024/04/01 02:45:21;;;;;;;12.80;3.80;;;;;;;;;;10448813;28;20033;-57
2024/04/01 02:50:21;;;;;;;11.63;3.38;;;;;;;;;;10448948;28;20214;-57
2024/04/01 02:55:22;;;;;;;15.82;3.72;;;;;;;;;;10449817;28;20036;-57
2024/04/01 03:00:23;;;;;;;12.07;3.40;;;;;;;;;;10448721;28;20465;-57
2024/04/01 03:05:23;;;;;;;9.98;3.05;;;;;;;;;;10452526;28;20392;-50
2024/04/01 03:10:24;;;;;;;10.70;3.28;;;;;;;;;;10461315;28;20024;-54
2024/04/01 03:15:24;;;;;;;10.85;3.00;;;;;;;;;;10448721;28;20040;-52
2024/04/01 03:20:25;;;;;;;9.48;3.42;;;;;;;;;;10460790;28;20067;-57
2024/04/01 03:25:26;;;;;;;9.60;3.55;;;;;;;;;;10444826;28;20025;-54
2024/04/01 03:30:26;;;;;;;10.15;3.60;;;;;;;;;;10434169;28;20041;-55
2024/04/01 03:35:27;;;;;;;12.43;3.38;;;;;;;;;;10424192;28;20055;-52
2024/04/01 03:40:28;;;;;;;13.13;3.40;;;;;;;;;;10438157;28;20424;-51
2024/04/01 03:45:28;;;;;;;14.63;3.63;;;;;;;;;;10430988;28;20452;-50
2024/04/01 03:50:30;;;;;;;9.60;2.92;;;;;;;;;;10445226;28;20503;-50
2024/04/01 03:55:31;;;;;;;9.43;3.42;;;;;;;;;;10444746;28;20043;-56
2024/04/01 04:00:31;;;;;;;10.30;3.05;;;;;;;;;;10436189;28;20021;-49
2024/04/01 04:05:32;;;;;;;10.02;3.72;;;;;;;;;;10454025;28;20037;-61
2024/04/01 04:10:33;;;;;;;9.93;3.33;;;;;;;;;;10419357;28;20452;-61
2024/04/01 04:15:34;;;;;;;11.02;3.65;;;;;;;;;;10447308;28;20032;-59
2024/04/01 04:20:34;;;;;;;9.27;3.28;;;;;;;;;;10441060;28;20032;-61
2024/04/01 04:25:35;;;;;;;11.45;3.65;;;;;;;;;;10448088;28;20048;-58
2024/04/01 04:30:35;;;;;;;8.18;3.35;;;;;;;;;;10446810;28;20032;-53
2024/04/01 04:35:36;;;;;;;14.20;3.70;;;;;;;;;;10439658;28;20029;-54
2024/04/01 04:40:36;;;;;;;10.55;3.75;;;;;;;;;;10435883;28;20025;-54
2024/04/01 04:45:47;;;;;;;14.05;3.45;;;;;;;;;;10451610;28;20423;-55
2024/04/01 04:50:48;;;;;;;12.57;4.10;;;;;;;;;;10442618;28;20581;-60
2024/04/01 04:55:49;;;;;;;9.95;3.00;;;;;;;;;;10483409;28;20153;-54
2024/04/01 05:00:49;;;;;;;8.32;3.13;;;;;;;;;;10448037;28;20026;-56
2024/04/01 05:05:50;;;;;;;9.35;3.38;;;;;;;;;;10439068;28;20036;-53
2024/04/01 05:10:50;;;;;;;10.80;3.38;;;;;;;;;;10444818;28;20550;-54
2024/04/01 05:15:51;;;;;;;10.18;3.75;;;;;;;;;;10467931;28;20328;-53
2024/04/01 05:20:52;;;;;;;12.10;3.72;;;;;;;;;;10484319;28;20041;-55
2024/04/01 05:25:53;;;;;;;16.20;3.85;;;;;;;;;;10451194;28;20140;-53
2024/04/01 05:30:53;;;;;;;9.50;3.35;;;;;;;;;;10444924;28;20055;-53
2024/04/01 05:35:54;;;;;;;11.23;3.67;;;;;;;;;;10429441;28;20033;-50
2024/04/01 05:40:54;;;;;;;13.35;3.50;;;;;;;;;;10462211;28;20021;-60
2024/04/01 05:45:55;;;;;;;14.27;3.33;;;;;;;;;;10471346;28;20119;-52
2024/04/01 05:50:55;;;;;;;14.70;3.70;;;;;;;;;;10464934;28;20028;-52
2024/04/01 05:55:56;;;;;;;12.13;3.88;;;;;;;;;;10472911;28;20028;-54
2024/04/01 06:00:56;;;;;;;7.82;3.25;;;;;;;;;;10454392;28;20052;-51
2024/04/01 06:05:58;;;;;;;12.88;4.35;;;;;;;;;;10441440;28;20393;-53
2024/04/01 06:11:02;;;;;;;12.30;4.00;;;;;;;;;;10431631;28;20087;-49
2024/04/01 06:16:03;;;;;;;15.30;3.92;;;;;;;;;;10437085;28;20118;-49
2024/04/01 06:21:04;;;;;;;11.38;3.60;;;;;;;;;;10446144;28;20128;-51
2024/04/01 06:26:04;;;;;;;12.30;3.75;;;;;;;;;;10442599;28;20386;-52
2024/04/01 06:31:05;;;;;;;13.35;4.13;;;;;;;;;;10461917;28;20033;-49
2024/04/01 06:36:07;;;;;;;11.35;3.35;;;;;;;;;;10470222;28;20060;-53
2024/04/01 06:41:07;;;;;;;11.63;3.90;;;;;;;;;;10429428;28;20036;-51
2024/04/01 06:46:08;;;;;;;12.07;3.47;;;;;;;;;;10454519;28;20029;-54
2024/04/01 06:51:09;;;;;;;12.38;3.40;;;;;;;;;;10447571;28;20043;-53
2024/04/01 06:56:09;;;;;;;12.43;3.42;;;;;;;;;;10455263;28;20021;-51
2024/04/01 07:01:10;;;;;;;9.43;3.83;;;;;;;;;;10447684;28;20029;-54
2024/04/01 07:06:11;;;;;;;11.85;3.22;;;;;;;;;;10445570;28;20029;-57
2024/04/01 07:11:12;;;;;;;17.10;3.70;;;;;;;;;;10437269;28;20029;-62
2024/04/01 07:16:12;;;;;;;10.65;4.00;;;;;;;;;;10447665;28;20057;-62
2024/04/01 07:21:13;;;;;;;14.30;4.22;;;;;;;;;;10451575;22;20064;-59
2024/04/01 07:26:13;;;;;;;9.20;3.20;;;;;;;;;;10478931;28;20067;-58
2024/04/01 07:31:14;;;;;;;12.13;3.80;;;;;;;;;;10471902;28;20461;-59
2024/04/01 07:36:14;;;;;;;12.40;3.40;;;;;;;;;;10439681;28;20028;-52
2024/04/01 07:41:16;;;;;;;14.40;3.63;;;;;;;;;;10442910;28;20061;-52
2024/04/01 07:46:17;;;;;;;17.05;3.70;;;;;;;;;;10444460;28;20491;-59
2024/04/01 07:51:17;;;;;;;16.67;3.97;;;;;;;;;;10443631;28;20028;-53
2024/04/01 07:56:19;;;;;;;9.23;4.20;;;;;;;;;;10430742;28;20029;-53
2024/04/01 08:01:20;;;;;;;22.05;4.28;;;;;;;;;;10441764;28;20066;-53
2024/04/01 08:06:20;;;;;;;9.80;3.92;;;;;;;;;;10440944;28;20037;-51
2024/04/01 08:11:21;;;;;;;11.50;4.10;;;;;;;;;;10440270;28;20481;-54
2024/04/01 08:16:21;;;;;;;12.15;3.50;;;;;;;;;;10425730;28;20078;-50
2024/04/01 08:21:22;;;;;;;12.45;3.80;;;;;;;;;;10443053;28;20056;-51
2024/04/01 08:26:23;;;;;;;11.93;3.42;;;;;;;;;;10444146;28;20083;-51
2024/04/01 08:31:23;;;;;;;13.18;3.88;;;;;;;;;;10443515;28;20029;-49
2024/04/01 08:36:24;;;;;;;30.67;4.13;;;;;;;;;;10434285;28;20026;-47
2024/04/01 08:41:54;;;;;;;15.13;4.43;;;;;;;;;;10421925;28;20477;-56
2024/04/01 08:46:57;;;;;;;26.48;5.82;;;;;;;;;;10434566;28;20401;-51
2024/04/01 08:52:03;;;;;;;24.52;5.72;;;;;;;;;;10413453;28;20104;-54
2024/04/01 08:57:04;;;;;;;21.92;5.00;;;;;;;;;;10425797;28;20087;-51
2024/04/01 09:02:05;;;;;;;20.80;5.00;;;;;;;;;;10445602;28;20075;-58
2024/04/01 09:07:12;;;;;;;24.50;5.45;;;;;;;;;;10446084;28;20079;-60
2024/04/01 09:12:13;;;;;;;14.52;4.00;;;;;;;;;;10451067;28;20047;-60
2024/04/01 09:17:26;;;;;;;21.58;4.75;;;;;;;;;;10435022;28;20030;-57
2024/04/01 09:22:27;;;;;;;13.30;5.13;;;;;;;;;;10443683;28;20451;-59
2024/04/01 09:27:27;;;;;;;19.85;5.35;;;;;;;;;;10434850;28;20317;-59
2024/04/01 09:32:28;;;;;;;20.05;5.30;;;;;;;;;;10446151;28;20143;-53
2024/04/01 09:37:29;;;;;;;24.20;5.80;;;;;;;;;;10443153;28;20041;-54
2024/04/01 09:42:30;;;;;;;20.23;5.65;;;;;;;;;;10437310;28;20044;-54
2024/04/01 09:47:31;;;;;;;27.73;6.47;;;;;;;;;;10407563;28;20021;-58
2024/04/01 09:52:33;;;;;;;19.77;5.05;;;;;;;;;;10438942;28;20062;-54
2024/04/01 09:58:20;;;;;;;20.92;5.07;;;;;;;;;;10428397;28;20045;-53
2024/04/01 10:03:51;;;;;;;18.13;5.22;;;;;;;;;;10438225;28;20024;-60
2024/04/01 10:09:30;;;;;;;20.52;5.35;;;;;;;;;;10443019;28;20082;-56
2024/04/01 10:15:07;;;;;;;26.90;6.22;;;;;;;;;;10439450;28;20060;-55
2024/04/01 10:20:38;;;;;;;19.53;4.27;;;;;;;;;;10447065;28;20037;-57
2024/04/01 10:25:54;;;;;;;20.42;4.50;;;;;;;;;;10443526;28;20048;-58
2024/04/01 10:31:22;;;;;;;20.05;5.40;;;;;;;;;;10410123;28;20279;-56
2024/04/01 10:37:02;;;;;;;13.73;4.85;;;;;;;;;;10438182;28;20029;-53
2024/04/01 10:42:34;;;;;;;17.35;4.57;;;;;;;;;;10437453;28;20100;-55
2024/04/01 10:47:54;;;;;;;20.23;4.63;;;;;;;;;;10413311;28;20033;-59
2024/04/01 10:53:58;;;;;;;19.50;5.10;;;;;;;;;;10428158;28;20033;-57
2024/04/01 10:59:45;;;;;;;18.52;4.72;;;;;;;;;;10406599;28;20412;-59
2024/04/01 11:04:52;;;;;;;13.13;3.92;;;;;;;;;;10418378;28;20056;-61
2024/04/01 11:10:31;;;;;;;13.27;3.67;;;;;;;;;;10421368;28;20033;-61
2024/04/01 11:15:32;;;;;;;10.57;3.40;;;;;;;;;;10419372;28;20013;-56
2024/04/01 11:21:05;;;;;;;13.95;4.15;;;;;;;;;;10405784;28;20037;-60
2024/04/01 11:26:46;;;;;;;16.35;4.07;;;;;;;;;;10413712;28;20033;-57
2024/04/01 11:32:11;;;;;;;14.10;4.38;;;;;;;;;;10431827;28;20033;-53
2024/04/01 11:37:25;;;;;;;17.52;4.50;;;;;;;;;;10421225;28;20021;-54
2024/04/01 11:42:29;;;;;;;12.68;4.05;;;;;;;;;;10429375;28;20021;-61
2024/04/01 11:47:31;;;;;;;10.35;3.92;;;;;;;;;;10416797;28;20519;-61
2024/04/01 11:52:31;;;;;;;17.20;4.32;;;;;;;;;;10431108;28;20025;-60
2024/04/01 11:57:32;;;;;;;15.13;4.00;;;;;;;;;;10435432;28;20026;-52
2024/04/01 12:02:34;;;;;;;13.57;3.63;;;;;;;;;;10428283;28;20063;-57
2024/04/01 12:07:37;;;;;;;11.80;3.95;;;;;;;;;;10412818;28;20036;-63
2024/04/01 12:12:39;;;;;;;15.27;4.38;;;;;;;;;;10423519;28;20091;-60
2024/04/01 12:17:41;;;;;;;13.60;4.05;;;;;;;;;;10413611;28;20029;-64
2024/04/01 12:22:42;;;;;;;14.45;4.15;;;;;;;;;;10425249;28;20072;-51
2024/04/01 12:27:43;;;;;;;10.13;3.45;;;;;;;;;;10431429;28;20123;-58
2024/04/01 12:32:45;;;;;;;12.75;4.10;;;;;;;;;;10431906;28;20033;-55
2024/04/01 12:37:48;;;;;;;13.88;4.05;;;;;;;;;;10443072;28;20033;-59
2024/04/01 12:42:50;;;;;;;10.70;3.47;;;;;;;;;;10439162;28;20064;-59
2024/04/01 12:47:51;;;;;;;12.77;4.07;;;;;;;;;;10426529;28;20369;-54
2024/04/01 12:53:17;;;;;;;12.18;3.80;;;;;;;;;;10426718;28;20052;-54
2024/04/01 12:58:49;;;;;;;10.55;3.75;;;;;;;;;;10415232;28;20040;-60
2024/04/01 13:03:57;;;;;;;14.88;4.63;;;;;;;;;;10415890;28;20037;-62
2024/04/01 13:09:11;;;;;;;13.45;4.00;;;;;;;;;;10421134;28;20491;-61
2024/04/01 13:14:56;;;;;;;12.82;3.45;;;;;;;;;;10444920;28;20070;-55
2024/04/01 13:20:06;;;;;;;10.38;3.33;;;;;;;;;;10242019;28;20122;-63
2024/04/01 13:25:23;;;;;;;7.80;3.30;;;;;;;;;;10240661;28;20051;-63
2024/04/01 13:30:42;;;;;;;6.72;3.17;;;;;;;;;;10242750;29;20052;-57
2024/04/01 13:36:21;;;;;;;11.75;3.65;;;;;;;;;;10219027;29;20043;-60
2024/04/01 13:41:53;;;;;;;13.25;3.58;;;;;;;;;;10227002;28;20163;-58
2024/04/01 13:47:14;;;;;;;9.75;3.38;;;;;;;;;;10227209;28;20475;-57
2024/04/01 13:53:11;;;;;;;11.20;3.80;;;;;;;;;;10436268;28;20096;-61
2024/04/01 13:58:51;;;;;;;9.47;3.23;;;;;;;;;;10409610;28;20520;-58
2024/04/01 14:04:25;;;;;;;13.60;3.80;;;;;;;;;;10448446;28;20376;-56
2024/04/01 14:09:46;;;;;;;10.68;3.20;;;;;;;;;;10438755;28;20057;-63
2024/04/01 14:15:08;;;;;;;7.75;3.30;;;;;;;;;;10419539;28;20262;-63
2024/04/01 14:20:24;;;;;;;10.40;3.58;;;;;;;;;;10423318;28;20025;-53
2024/04/01 14:25:25;;;;;;;10.48;3.72;;;;;;;;;;10431688;28;20048;-63
2024/04/01 14:30:26;;;;;;;10.10;2.90;;;;;;;;;;10431534;28;20447;-62
2024/04/01 14:35:28;;;;;;;9.90;3.38;;;;;;;;;;10446139;28;20040;-63
2024/04/01 14:40:30;;;;;;;8.43;3.15;;;;;;;;;;10438878;28;20511;-55
2024/04/01 14:45:32;;;;;;;11.57;3.67;;;;;;;;;;10443272;28;20043;-57
2024/04/01 14:50:34;;;;;;;12.00;3.35;;;;;;;;;;10409504;28;20033;-57
2024/04/01 14:55:35;;;;;;;9.10;3.58;;;;;;;;;;10415880;28;20025;-62
2024/04/01 15:00:36;;;;;;;7.70;2.88;;;;;;;;;;10432604;28;20068;-60
2024/04/01 15:05:38;;;;;;;7.70;3.33;;;;;;;;;;10445280;28;20033;-57
2024/04/01 15:10:56;;;;;;;9.20;3.45;;;;;;;;;;10440565;28;20037;-55
2024/04/01 15:15:59;;;;;;;9.18;3.08;;;;;;;;;;10423308;28;20025;-56
2024/04/01 15:21:00;;;;;;;7.90;2.90;;;;;;;;;;10426396;28;20248;-61
2024/04/01 15:26:01;;;;;;;15.10;3.22;;;;;;;;;;10439005;28;20239;-57
2024/04/01 15:31:03;;;;;;;8.88;2.88;;;;;;;;;;10444798;28;20029;-59
2024/04/01 15:36:05;;;;;;;11.77;2.85;;;;;;;;;;10432094;28;20487;-58
2024/04/01 15:41:05;;;;;;;8.30;2.88;;;;;;;;;;10428411;28;20546;-63
2024/04/01 15:46:06;;;;;;;10.32;3.75;;;;;;;;;;10437680;28;20013;-62
2024/04/01 15:51:06;;;;;;;8.70;3.20;;;;;;;;;;10426945;28;20033;-60
2024/04/01 15:56:07;;;;;;;12.50;3.10;;;;;;;;;;10396842;28;20434;-59
2024/04/01 16:01:08;;;;;;;12.13;2.90;;;;;;;;;;10435050;28;20128;-58
2024/04/01 16:06:11;;;;;;;8.70;3.05;;;;;;;;;;10406244;28;20281;-56
2024/04/01 16:11:16;;;;;;;6.55;2.92;;;;;;;;;;10418043;28;20052;-61
2024/04/01 16:16:24;;;;;;;8.07;3.63;;;;;;;;;;10424823;28;20024;-57
2024/04/01 16:21:52;;;;;;;10.30;3.10;;;;;;;;;;10443909;28;20183;-63
2024/04/01 16:27:00;;;;;;;;;;;;;;;;;;10413058;28;20029;-63
2024/04/01 16:32:01;;;;;;;7.22;3.08;;;;;;;;;;10428111;28;20003;-60
2024/04/01 16:37:02;;;;;;;7.13;3.00;;;;;;;;;;10445452;28;20021;-62
2024/04/01 16:42:05;;;;;;;8.95;3.42;;;;;;;;;;10422511;28;20082;-61
2024/04/01 16:47:07;;;;;;;5.90;2.70;;;;;;;;;;10418590;28;20068;-63
2024/04/01 16:52:09;;;;;;;6.65;3.05;;;;;;;;;;10422392;28;20033;-61
2024/04/01 16:57:10;;;;;;;10.10;3.13;;;;;;;;;;10444062;28;20045;-63
2024/04/01 17:02:12;;;;;;;13.05;3.95;;;;;;;;;;10407054;28;20022;-62
2024/04/01 17:07:13;;;;;;;6.30;2.40;;;;;;;;;;10436075;28;20051;-57
2024/04/01 17:12:14;;;;;;;8.00;3.22;;;;;;;;;;10429864;28;20029;-63
2024/04/01 17:17:14;;;;;;;9.40;3.70;;;;;;;;;;10438284;28;20116;-54
2024/04/01 17:22:15;;;;;;;8.90;3.38;;;;;;;;;;10397733;28;20037;-63
2024/04/01 17:27:17;;;;;;;9.70;2.80;;;;;;;;;;10434448;28;20036;-60
2024/04/01 17:32:18;;;;;;;11.90;3.75;;;;;;;;;;10446628;28;20663;-57
2024/04/01 17:37:20;;;;;;;10.88;3.78;;;;;;;;;;10432025;28;20059;-60
2024/04/01 17:42:23;;;;;;;9.45;3.83;;;;;;;;;;10415023;28;20401;-57
2024/04/01 17:47:25;;;;;;;10.88;3.28;;;;;;;;;;10423908;28;20037;-62
2024/04/01 17:52:25;;;;;;;8.82;3.60;;;;;;;;;;10439421;28;20385;-61
2024/04/01 17:57:28;;;;;;;8.35;2.85;;;;;;;;;;10440742;28;20036;-60
2024/04/01 18:02:28;;;;;;;9.10;3.63;;;;;;;;;;10426380;28;20388;-62
2024/04/01 18:07:29;;;;;;;10.07;3.63;;;;;;;;;;10432999;28;20033;-55
2024/04/01 18:12:31;;;;;;;14.77;3.55;;;;;;;;;;10433367;28;20404;-59
2024/04/01 18:17:32;;;;;;;8.48;3.30;;;;;;;;;;10418213;28;20087;-58
2024/04/01 18:22:33;;;;;;;21.60;4.13;;;;;;;;;;10433943;28;20195;-59
2024/04/01 18:27:35;;;;;;;16.65;5.07;;;;;;;;;;10419900;28;20489;-63
2024/04/01 18:32:39;;;;;;;27.88;4.72;;;;;;;;;;10424249;28;20535;-60
2024/04/01 18:37:41;;;;;;;13.85;4.18;;;;;;;;;;10433853;28;20099;-60
2024/04/01 18:42:42;;;;;;;15.00;4.20;;;;;;;;;;10435203;28;20044;-59
2024/04/01 18:47:43;;;;;;;12.57;3.92;;;;;;;;;;10440060;28;20510;-62
2024/04/01 18:52:43;;;;;;;17.95;3.80;;;;;;;;;;10424940;28;20056;-61
2024/04/01 18:57:44;;;;;;;16.38;3.92;;;;;;;;;;10433172;28;20037;-61
2024/04/01 19:02:46;;;;;;;15.10;4.22;;;;;;;;;;10434440;28;20032;-60
2024/04/01 19:07:47;;;;;;;12.23;3.90;;;;;;;;;;10440114;28;20091;-62
2024/04/01 19:12:48;;;;;;;10.82;3.97;;;;;;;;;;10430569;28;20071;-60
2024/04/01 19:17:48;;;;;;;16.40;4.20;;;;;;;;;;10434520;28;20070;-62
2024/04/01 19:22:49;;;;;;;14.38;4.03;;;;;;;;;;10421965;28;20050;-58
2024/04/01 19:27:50;;;;;;;11.13;3.63;;;;;;;;;;10436041;28;20028;-64
2024/04/01 19:33:36;;;;;;;9.13;3.70;;;;;;;;;;10438187;28;20029;-63
2024/04/01 19:38:46;;;;;;;12.95;3.53;;;;;;;;;;10348887;28;20181;-60
2024/04/01 19:44:12;;;;;;;10.82;3.45;;;;;;;;;;10355348;28;20415;-61
2024/04/01 19:49:51;;;;;;;12.15;3.78;;;;;;;;;;10386385;28;20040;-63
2024/04/01 19:54:52;;;;;;;18.02;3.40;;;;;;;;;;10396895;28;20396;-60
2024/04/01 19:59:53;;;;;;;11.20;3.80;;;;;;;;;;10397853;28;20046;-62
2024/04/01 20:05:01;;;;;;;13.98;3.45;;;;;;;;;;10390032;28;20049;-62
2024/04/01 20:10:10;;;;;;;7.75;3.03;;;;;;;;;;10392122;28;20030;-60
2024/04/01 20:15:12;;;;;;;9.88;3.08;;;;;;;;;;10400625;28;20113;-58
2024/04/01 20:20:17;;;;;;;9.82;3.40;;;;;;;;;;10385692;28;20059;-59
2024/04/01 20:25:19;;;;;;;14.80;3.90;;;;;;;;;;10387198;28;20485;-56
2024/04/01 20:30:27;;;;;;;14.15;3.75;;;;;;;;;;10401903;28;20477;-55
2024/04/01 20:35:27;;;;;;;15.05;3.35;;;;;;;;;;10399356;28;20038;-59
2024/04/01 20:40:28;;;;;;;7.05;3.22;;;;;;;;;;10395367;28;20482;-57
2024/04/01 20:45:29;;;;;;;6.25;3.03;;;;;;;;;;10398174;28;20061;-56
2024/04/01 20:50:31;;;;;;;9.63;3.33;;;;;;;;;;10382879;28;20026;-55
2024/04/01 20:55:34;;;;;;;9.18;3.28;;;;;;;;;;10388712;28;20082;-61
2024/04/01 21:00:36;;;;;;;8.05;3.13;;;;;;;;;;10383587;28;20064;-55
2024/04/01 21:05:37;;;;;;;8.95;3.40;;;;;;;;;;10398362;28;20044;-55
2024/04/01 21:10:38;;;;;;;10.43;3.08;;;;;;;;;;10407441;28;20036;-59
2024/04/01 21:15:38;;;;;;;10.85;3.67;;;;;;;;;;10408325;28;20029;-58
2024/04/01 21:20:39;;;;;;;6.82;2.75;;;;;;;;;;10389650;28;20067;-54
2024/04/01 21:25:39;;;;;;;8.02;3.22;;;;;;;;;;10405864;28;20034;-62
2024/04/01 21:30:40;;;;;;;9.50;2.78;;;;;;;;;;10402444;28;20087;-61
2024/04/01 21:35:41;;;;;;;7.70;2.90;;;;;;;;;;10396520;28;20030;-61
2024/04/01 21:40:41;;;;;;;7.43;2.78;;;;;;;;;;10393055;28;20037;-57
2024/04/01 21:45:42;;;;;;;6.55;3.15;;;;;;;;;;10399833;28;20389;-54
2024/04/01 21:50:42;;;;;;;8.05;3.13;;;;;;;;;;10405381;28;20029;-58
2024/04/01 21:55:43;;;;;;;17.27;4.03;;;;;;;;;;10403205;28;20499;-62
2024/04/01 22:00:44;;;;;;;14.45;3.22;;;;;;;;;;10405142;28;20516;-58
2024/04/01 22:05:44;;;;;;;8.90;3.33;;;;;;;;;;10401387;28;20405;-58
2024/04/01 22:10:47;;;;;;;10.20;3.22;;;;;;;;;;10390500;28;20033;-61
2024/04/01 22:15:47;;;;;;;10.88;3.47;;;;;;;;;;10391261;28;20034;-58
2024/04/01 22:20:48;;;;;;;11.52;3.58;;;;;;;;;;10396796;28;20037;-53
2024/04/01 22:25:48;;;;;;;12.15;3.38;;;;;;;;;;10411477;28;20026;-50
2024/04/01 22:30:49;;;;;;;7.18;3.05;;;;;;;;;;10403622;28;20022;-60
2024/04/01 22:35:50;;;;;;;12.73;3.35;;;;;;;;;;10405304;28;20017;-53
2024/04/01 22:40:51;;;;;;;12.63;3.60;;;;;;;;;;10387597;28;20018;-53
2024/04/01 22:45:51;;;;;;;12.25;3.50;;;;;;;;;;10405219;28;20025;-53
2024/04/01 22:50:52;;;;;;;11.25;2.95;;;;;;;;;;10386687;28;20054;-53
2024/04/01 22:55:54;;;;;;;6.78;2.80;;;;;;;;;;10407286;28;20087;-55
2024/04/01 23:00:54;;;;;;;8.52;2.65;;;;;;;;;;10407718;28;20045;-59
2024/04/01 23:05:56;;;;;;;7.65;2.58;;;;;;;;;;10396959;28;20025;-59
2024/04/01 23:10:56;;;;;;;9.18;2.85;;;;;;;;;;10405196;28;20044;-63
2024/04/01 23:15:57;;;;;;;5.18;2.05;;;;;;;;;;10406326;28;20048;-61
2024/04/01 23:20:58;;;;;;;6.47;2.85;;;;;;;;;;10404701;28;20047;-63
2024/04/01 23:25:59;;;;;;;8.35;2.60;;;;;;;;;;10404012;28;20038;-62
2024/04/01 23:31:04;;;;;;;18.50;3.08;;;;;;;;;;10403702;28;20025;-60
2024/04/01 23:36:05;;;;;;;7.07;2.90;;;;;;;;;;10403800;28;20420;-63
2024/04/01 23:41:05;;;;;;;5.85;2.90;;;;;;;;;;10405530;28;20018;-62
2024/04/01 23:46:06;;;;;;;10.63;2.70;;;;;;;;;;10403900;28;20469;-62
2024/04/01 23:51:07;;;;;;;11.05;2.22;;;;;;;;;;10404511;28;20408;-62
2024/04/01 23:56:08;;;;;;;11.35;2.65;;;;;;;;;;10404374;28;20029;-53
